sensor_id;sensor_type;location;lat;lon;timestamp;P1;durP1;ratioP1;P2;durP2;ratioP2
41719;SDS011;27405;53.316;-6.294;2023-07-20T00:01:15;5.65;;;3.20;;
41719;SDS011;27405;53.316;-6.294;2023-07-20T00:03:41;10.13;;;3.70;;
41719;SDS011;27405;53.316;-6.294;2023-07-20T00:06:07;9.10;;;3.53;;
41719;SDS011;27405;53.316;-6.294;2023-07-20T00:08:33;6.15;;;3.63;;
41719;SDS011;27405;53.316;-6.294;2023-07-20T00:10:59;6.00;;;3.60;;
41719;SDS011;27405;53.316;-6.294;2023-07-20T00:13:24;7.43;;;3.22;;
41719;SDS011;27405;53.316;-6.294;2023-07-20T00:15:51;4.82;;;3.30;;
41719;SDS011;27405;53.316;-6.294;2023-07-20T00:18:17;9.88;;;3.53;;
41719;SDS011;27405;53.316;-6.294;2023-07-20T00:20:46;12.15;;;3.97;;
41719;SDS011;27405;53.316;-6.294;2023-07-20T00:23:12;9.32;;;3.90;;
41719;SDS011;27405;53.316;-6.294;2023-07-20T00:25:37;7.80;;;3.63;;
41719;SDS011;27405;53.316;-6.294;2023-07-20T00:28:03;6.50;;;3.28;;
41719;SDS011;27405;53.316;-6.294;2023-07-20T00:30:29;4.35;;;3.13;;
41719;SDS011;27405;53.316;-6.294;2023-07-20T00:32:54;7.30;;;3.50;;
41719;SDS011;27405;53.316;-6.294;2023-07-20T00:35:20;9.52;;;3.72;;
41719;SDS011;27405;53.316;-6.294;2023-07-20T00:37:46;6.93;;;3.67;;
41719;SDS011;27405;53.316;-6.294;2023-07-20T00:40:11;8.27;;;3.97;;
41719;SDS011;27405;53.316;-6.294;2023-07-20T00:42:37;5.68;;;3.70;;
41719;SDS011;27405;53.316;-6.294;2023-07-20T00:45:03;7.10;;;3.95;;
41719;SDS011;27405;53.316;-6.294;2023-07-20T00:47:29;7.78;;;4.18;;
41719;SDS011;27405;53.316;-6.294;2023-07-20T00:49:55;7.45;;;4.43;;
41719;SDS011;27405;53.316;-6.294;2023-07-20T00:52:21;8.38;;;4.55;;
41719;SDS011;27405;53.316;-6.294;2023-07-20T00:54:49;9.98;;;4.10;;
41719;SDS011;27405;53.316;-6.294;2023-07-20T00:57:15;8.68;;;4.10;;
41719;SDS011;27405;53.316;-6.294;2023-07-20T00:59:41;7.55;;;4.28;;
41719;SDS011;27405;53.316;-6.294;2023-07-20T01:02:07;6.90;;;3.83;;
41719;SDS011;27405;53.316;-6.294;2023-07-20T01:04:33;6.05;;;3.95;;
41719;SDS011;27405;53.316;-6.294;2023-07-20T01:12:43;6.32;;;4.25;;
41719;SDS011;27405;53.316;-6.294;2023-07-20T01:15:12;5.38;;;3.60;;
41719;SDS011;27405;53.316;-6.294;2023-07-20T01:17:38;7.57;;;3.88;;
41719;SDS011;27405;53.316;-6.294;2023-07-20T01:20:05;7.32;;;3.90;;
41719;SDS011;27405;53.316;-6.294;2023-07-20T01:28:01;5.88;;;3.60;;
41719;SDS011;27405;53.316;-6.294;2023-07-20T01:33:24;9.63;;;5.20;;
41719;SDS011;27405;53.316;-6.294;2023-07-20T01:35:53;11.48;;;6.38;;
41719;SDS011;27405;53.316;-6.294;2023-07-20T01:38:22;12.70;;;7.28;;
41719;SDS011;27405;53.316;-6.294;2023-07-20T01:40:49;13.07;;;7.13;;
41719;SDS011;27405;53.316;-6.294;2023-07-20T01:43:15;13.35;;;7.30;;
41719;SDS011;27405;53.316;-6.294;2023-07-20T01:45:41;13.90;;;7.15;;
41719;SDS011;27405;53.316;-6.294;2023-07-20T01:48:07;13.25;;;6.25;;
41719;SDS011;27405;53.316;-6.294;2023-07-20T01:50:32;8.25;;;5.00;;
41719;SDS011;27405;53.316;-6.294;2023-07-20T01:52:59;7.70;;;4.00;;
41719;SDS011;27405;53.316;-6.294;2023-07-20T01:55:25;7.60;;;4.20;;
41719;SDS011;27405;53.316;-6.294;2023-07-20T01:57:51;7.90;;;4.45;;
41719;SDS011;27405;53.316;-6.294;2023-07-20T02:00:17;10.02;;;5.20;;
41719;SDS011;27405;53.316;-6.294;2023-07-20T02:02:50;7.80;;;4.75;;
41719;SDS011;27405;53.316;-6.294;2023-07-20T02:05:16;9.55;;;4.80;;
41719;SDS011;27405;53.316;-6.294;2023-07-20T02:07:42;13.10;;;6.22;;
41719;SDS011;27405;53.316;-6.294;2023-07-20T02:10:08;15.35;;;7.75;;
41719;SDS011;27405;53.316;-6.294;2023-07-20T02:12:34;15.48;;;7.55;;
41719;SDS011;27405;53.316;-6.294;2023-07-20T02:15:02;18.70;;;8.80;;
41719;SDS011;27405;53.316;-6.294;2023-07-20T02:17:28;20.23;;;10.90;;
41719;SDS011;27405;53.316;-6.294;2023-07-20T02:19:54;18.67;;;10.52;;
41719;SDS011;27405;53.316;-6.294;2023-07-20T02:22:21;19.45;;;10.75;;
41719;SDS011;27405;53.316;-6.294;2023-07-20T02:24:47;17.65;;;9.35;;
41719;SDS011;27405;53.316;-6.294;2023-07-20T02:27:13;21.98;;;11.27;;
41719;SDS011;27405;53.316;-6.294;2023-07-20T02:29:40;17.42;;;8.15;;
41719;SDS011;27405;53.316;-6.294;2023-07-20T02:32:06;16.15;;;8.05;;
41719;SDS011;27405;53.316;-6.294;2023-07-20T02:34:32;13.77;;;6.75;;
41719;SDS011;27405;53.316;-6.294;2023-07-20T02:36:58;9.93;;;5.93;;
41719;SDS011;27405;53.316;-6.294;2023-07-20T02:39:26;12.85;;;5.25;;
41719;SDS011;27405;53.316;-6.294;2023-07-20T02:41:53;9.38;;;4.10;;
41719;SDS011;27405;53.316;-6.294;2023-07-20T02:44:19;10.38;;;4.50;;
41719;SDS011;27405;53.316;-6.294;2023-07-20T02:46:44;7.55;;;4.13;;
41719;SDS011;27405;53.316;-6.294;2023-07-20T02:49:10;9.00;;;4.40;;
41719;SDS011;27405;53.316;-6.294;2023-07-20T02:51:36;10.80;;;4.50;;
41719;SDS011;27405;53.316;-6.294;2023-07-20T02:54:02;9.25;;;4.35;;
41719;SDS011;27405;53.316;-6.294;2023-07-20T02:56:28;9.43;;;3.85;;
41719;SDS011;27405;53.316;-6.294;2023-07-20T02:58:54;6.30;;;3.85;;
41719;SDS011;27405;53.316;-6.294;2023-07-20T03:01:19;8.65;;;4.40;;
41719;SDS011;27405;53.316;-6.294;2023-07-20T03:03:45;9.73;;;4.55;;
41719;SDS011;27405;53.316;-6.294;2023-07-20T03:06:14;7.03;;;4.40;;
41719;SDS011;27405;53.316;-6.294;2023-07-20T03:08:44;11.35;;;5.30;;
41719;SDS011;27405;53.316;-6.294;2023-07-20T03:11:15;12.05;;;5.90;;
41719;SDS011;27405;53.316;-6.294;2023-07-20T03:13:41;12.23;;;5.97;;
41719;SDS011;27405;53.316;-6.294;2023-07-20T03:16:11;15.57;;;8.52;;
41719;SDS011;27405;53.316;-6.294;2023-07-20T03:18:40;18.75;;;9.18;;
41719;SDS011;27405;53.316;-6.294;2023-07-20T03:21:09;19.83;;;9.23;;
41719;SDS011;27405;53.316;-6.294;2023-07-20T03:23:41;17.55;;;8.52;;
41719;SDS011;27405;53.316;-6.294;2023-07-20T03:26:07;15.02;;;8.13;;
41719;SDS011;27405;53.316;-6.294;2023-07-20T03:28:36;17.08;;;8.23;;
41719;SDS011;27405;53.316;-6.294;2023-07-20T03:31:02;14.23;;;8.35;;
41719;SDS011;27405;53.316;-6.294;2023-07-20T03:33:29;18.58;;;9.15;;
41719;SDS011;27405;53.316;-6.294;2023-07-20T03:35:55;16.65;;;7.43;;
41719;SDS011;27405;53.316;-6.294;2023-07-20T03:38:21;12.98;;;5.88;;
41719;SDS011;27405;53.316;-6.294;2023-07-20T03:40:51;10.52;;;5.18;;
41719;SDS011;27405;53.316;-6.294;2023-07-20T03:43:26;9.53;;;4.40;;
41719;SDS011;27405;53.316;-6.294;2023-07-20T03:45:53;11.57;;;5.28;;
41719;SDS011;27405;53.316;-6.294;2023-07-20T03:48:19;9.95;;;4.80;;
41719;SDS011;27405;53.316;-6.294;2023-07-20T03:50:49;8.77;;;4.50;;
41719;SDS011;27405;53.316;-6.294;2023-07-20T03:53:16;9.85;;;4.85;;
41719;SDS011;27405;53.316;-6.294;2023-07-20T03:55:45;8.40;;;4.80;;
41719;SDS011;27405;53.316;-6.294;2023-07-20T03:58:12;8.45;;;4.75;;
41719;SDS011;27405;53.316;-6.294;2023-07-20T04:00:38;10.70;;;6.32;;
41719;SDS011;27405;53.316;-6.294;2023-07-20T04:03:04;13.77;;;7.20;;
41719;SDS011;27405;53.316;-6.294;2023-07-20T04:05:30;15.13;;;7.70;;
41719;SDS011;27405;53.316;-6.294;2023-07-20T04:07:56;15.32;;;8.45;;
41719;SDS011;27405;53.316;-6.294;2023-07-20T04:10:21;19.42;;;9.60;;
41719;SDS011;27405;53.316;-6.294;2023-07-20T04:12:47;17.08;;;10.30;;
41719;SDS011;27405;53.316;-6.294;2023-07-20T04:15:13;18.33;;;10.98;;
41719;SDS011;27405;53.316;-6.294;2023-07-20T04:17:40;17.95;;;12.05;;
41719;SDS011;27405;53.316;-6.294;2023-07-20T04:20:06;18.63;;;11.38;;
41719;SDS011;27405;53.316;-6.294;2023-07-20T04:22:32;16.80;;;9.05;;
41719;SDS011;27405;53.316;-6.294;2023-07-20T04:24:58;15.40;;;7.90;;
41719;SDS011;27405;53.316;-6.294;2023-07-20T04:27:24;13.43;;;6.70;;
41719;SDS011;27405;53.316;-6.294;2023-07-20T04:29:49;16.73;;;7.03;;
41719;SDS011;27405;53.316;-6.294;2023-07-20T04:32:15;11.60;;;6.47;;
41719;SDS011;27405;53.316;-6.294;2023-07-20T04:34:42;12.55;;;6.85;;
41719;SDS011;27405;53.316;-6.294;2023-07-20T04:37:08;12.93;;;7.07;;
41719;SDS011;27405;53.316;-6.294;2023-07-20T04:39:33;15.07;;;6.95;;
41719;SDS011;27405;53.316;-6.294;2023-07-20T04:41:59;14.20;;;6.90;;
41719;SDS011;27405;53.316;-6.294;2023-07-20T04:44:25;16.23;;;7.97;;
41719;SDS011;27405;53.316;-6.294;2023-07-20T04:46:50;17.02;;;8.95;;
41719;SDS011;27405;53.316;-6.294;2023-07-20T04:49:16;16.75;;;9.48;;
41719;SDS011;27405;53.316;-6.294;2023-07-20T04:51:42;18.58;;;9.82;;
41719;SDS011;27405;53.316;-6.294;2023-07-20T04:54:07;16.15;;;7.40;;
41719;SDS011;27405;53.316;-6.294;2023-07-20T04:56:33;14.18;;;6.82;;
41719;SDS011;27405;53.316;-6.294;2023-07-20T04:58:59;12.50;;;6.70;;
41719;SDS011;27405;53.316;-6.294;2023-07-20T05:01:25;11.93;;;5.40;;
41719;SDS011;27405;53.316;-6.294;2023-07-20T05:03:51;12.93;;;5.72;;
41719;SDS011;27405;53.316;-6.294;2023-07-20T05:06:17;14.98;;;6.60;;
41719;SDS011;27405;53.316;-6.294;2023-07-20T05:08:44;9.30;;;5.57;;
41719;SDS011;27405;53.316;-6.294;2023-07-20T05:11:10;13.23;;;5.90;;
41719;SDS011;27405;53.316;-6.294;2023-07-20T05:13:36;11.32;;;5.57;;
41719;SDS011;27405;53.316;-6.294;2023-07-20T05:16:02;11.75;;;5.45;;
41719;SDS011;27405;53.316;-6.294;2023-07-20T05:18:28;13.80;;;6.57;;
41719;SDS011;27405;53.316;-6.294;2023-07-20T05:20:54;14.23;;;6.95;;
41719;SDS011;27405;53.316;-6.294;2023-07-20T05:23:20;13.93;;;6.55;;
41719;SDS011;27405;53.316;-6.294;2023-07-20T05:25:46;17.48;;;6.53;;
41719;SDS011;27405;53.316;-6.294;2023-07-20T05:28:12;14.15;;;6.95;;
41719;SDS011;27405;53.316;-6.294;2023-07-20T05:30:39;17.15;;;7.95;;
41719;SDS011;27405;53.316;-6.294;2023-07-20T05:33:05;14.88;;;7.70;;
41719;SDS011;27405;53.316;-6.294;2023-07-20T05:35:31;16.23;;;7.90;;
41719;SDS011;27405;53.316;-6.294;2023-07-20T05:37:56;18.15;;;7.75;;
41719;SDS011;27405;53.316;-6.294;2023-07-20T05:40:22;15.73;;;6.93;;
41719;SDS011;27405;53.316;-6.294;2023-07-20T05:42:48;14.77;;;6.80;;
41719;SDS011;27405;53.316;-6.294;2023-07-20T05:45:16;11.68;;;5.95;;
41719;SDS011;27405;53.316;-6.294;2023-07-20T05:47:42;15.95;;;5.88;;
41719;SDS011;27405;53.316;-6.294;2023-07-20T05:50:08;14.35;;;6.38;;
41719;SDS011;27405;53.316;-6.294;2023-07-20T05:52:35;12.13;;;5.50;;
41719;SDS011;27405;53.316;-6.294;2023-07-20T05:55:00;11.90;;;5.72;;
41719;SDS011;27405;53.316;-6.294;2023-07-20T05:57:26;12.65;;;6.38;;
41719;SDS011;27405;53.316;-6.294;2023-07-20T05:59:52;12.75;;;5.97;;
41719;SDS011;27405;53.316;-6.294;2023-07-20T06:02:18;10.40;;;5.78;;
41719;SDS011;27405;53.316;-6.294;2023-07-20T06:04:43;12.13;;;5.80;;
41719;SDS011;27405;53.316;-6.294;2023-07-20T06:07:09;12.13;;;6.10;;
41719;SDS011;27405;53.316;-6.294;2023-07-20T06:09:35;16.50;;;5.80;;
41719;SDS011;27405;53.316;-6.294;2023-07-20T06:12:00;14.90;;;6.63;;
41719;SDS011;27405;53.316;-6.294;2023-07-20T06:14:26;16.42;;;7.05;;
41719;SDS011;27405;53.316;-6.294;2023-07-20T06:16:52;15.35;;;7.00;;
41719;SDS011;27405;53.316;-6.294;2023-07-20T06:19:17;16.05;;;7.45;;
41719;SDS011;27405;53.316;-6.294;2023-07-20T06:21:43;15.55;;;7.90;;
41719;SDS011;27405;53.316;-6.294;2023-07-20T06:24:09;17.63;;;7.80;;
41719;SDS011;27405;53.316;-6.294;2023-07-20T06:26:35;17.10;;;8.23;;
41719;SDS011;27405;53.316;-6.294;2023-07-20T06:29:07;20.02;;;8.38;;
41719;SDS011;27405;53.316;-6.294;2023-07-20T06:31:34;16.48;;;8.48;;
41719;SDS011;27405;53.316;-6.294;2023-07-20T06:34:00;18.17;;;8.00;;
41719;SDS011;27405;53.316;-6.294;2023-07-20T06:36:26;19.92;;;9.52;;
41719;SDS011;27405;53.316;-6.294;2023-07-20T06:38:52;20.55;;;9.48;;
41719;SDS011;27405;53.316;-6.294;2023-07-20T06:41:18;21.30;;;9.00;;
41719;SDS011;27405;53.316;-6.294;2023-07-20T06:43:44;17.08;;;8.27;;
41719;SDS011;27405;53.316;-6.294;2023-07-20T06:46:10;15.15;;;7.60;;
41719;SDS011;27405;53.316;-6.294;2023-07-20T06:48:35;13.10;;;6.97;;
41719;SDS011;27405;53.316;-6.294;2023-07-20T06:51:01;17.08;;;7.63;;
41719;SDS011;27405;53.316;-6.294;2023-07-20T06:53:28;16.83;;;7.60;;
41719;SDS011;27405;53.316;-6.294;2023-07-20T06:55:54;16.98;;;7.30;;
41719;SDS011;27405;53.316;-6.294;2023-07-20T06:58:22;14.68;;;7.32;;
41719;SDS011;27405;53.316;-6.294;2023-07-20T07:00:51;16.63;;;7.47;;
41719;SDS011;27405;53.316;-6.294;2023-07-20T07:03:16;17.35;;;7.78;;
41719;SDS011;27405;53.316;-6.294;2023-07-20T07:05:43;17.63;;;7.75;;
41719;SDS011;27405;53.316;-6.294;2023-07-20T07:08:10;17.33;;;8.23;;
41719;SDS011;27405;53.316;-6.294;2023-07-20T07:10:36;19.77;;;8.98;;
41719;SDS011;27405;53.316;-6.294;2023-07-20T07:13:02;19.48;;;8.95;;
41719;SDS011;27405;53.316;-6.294;2023-07-20T07:15:28;21.50;;;9.85;;
41719;SDS011;27405;53.316;-6.294;2023-07-20T07:17:54;21.38;;;9.05;;
41719;SDS011;27405;53.316;-6.294;2023-07-20T07:20:21;15.23;;;8.18;;
41719;SDS011;27405;53.316;-6.294;2023-07-20T07:22:50;18.38;;;8.50;;
41719;SDS011;27405;53.316;-6.294;2023-07-20T07:25:17;17.75;;;8.48;;
41719;SDS011;27405;53.316;-6.294;2023-07-20T07:27:42;19.42;;;8.35;;
41719;SDS011;27405;53.316;-6.294;2023-07-20T07:30:08;17.75;;;9.35;;
41719;SDS011;27405;53.316;-6.294;2023-07-20T07:32:34;20.85;;;8.38;;
41719;SDS011;27405;53.316;-6.294;2023-07-20T07:35:00;18.15;;;8.40;;
41719;SDS011;27405;53.316;-6.294;2023-07-20T07:37:26;20.55;;;8.98;;
41719;SDS011;27405;53.316;-6.294;2023-07-20T07:39:51;18.83;;;9.18;;
41719;SDS011;27405;53.316;-6.294;2023-07-20T07:42:17;19.42;;;9.35;;
41719;SDS011;27405;53.316;-6.294;2023-07-20T07:44:43;16.73;;;9.25;;
41719;SDS011;27405;53.316;-6.294;2023-07-20T07:47:09;20.10;;;9.07;;
41719;SDS011;27405;53.316;-6.294;2023-07-20T07:49:35;19.83;;;10.00;;
41719;SDS011;27405;53.316;-6.294;2023-07-20T07:52:01;20.55;;;9.75;;
41719;SDS011;27405;53.316;-6.294;2023-07-20T07:54:29;17.25;;;9.70;;
41719;SDS011;27405;53.316;-6.294;2023-07-20T07:56:55;23.05;;;11.57;;
41719;SDS011;27405;53.316;-6.294;2023-07-20T07:59:21;24.67;;;11.15;;
41719;SDS011;27405;53.316;-6.294;2023-07-20T08:01:47;20.35;;;10.32;;
41719;SDS011;27405;53.316;-6.294;2023-07-20T08:04:13;20.98;;;10.43;;
41719;SDS011;27405;53.316;-6.294;2023-07-20T08:06:39;20.73;;;10.93;;
41719;SDS011;27405;53.316;-6.294;2023-07-20T08:09:04;18.95;;;10.52;;
41719;SDS011;27405;53.316;-6.294;2023-07-20T08:11:30;21.20;;;11.77;;
41719;SDS011;27405;53.316;-6.294;2023-07-20T08:13:59;20.20;;;10.95;;
41719;SDS011;27405;53.316;-6.294;2023-07-20T08:16:25;24.67;;;11.77;;
41719;SDS011;27405;53.316;-6.294;2023-07-20T08:18:51;22.00;;;11.50;;
41719;SDS011;27405;53.316;-6.294;2023-07-20T08:21:17;19.85;;;10.40;;
41719;SDS011;27405;53.316;-6.294;2023-07-20T08:23:42;21.33;;;11.23;;
41719;SDS011;27405;53.316;-6.294;2023-07-20T08:26:08;19.88;;;11.13;;
41719;SDS011;27405;53.316;-6.294;2023-07-20T08:28:34;19.17;;;11.07;;
41719;SDS011;27405;53.316;-6.294;2023-07-20T08:31:00;19.75;;;11.25;;
41719;SDS011;27405;53.316;-6.294;2023-07-20T08:33:25;19.02;;;10.43;;
41719;SDS011;27405;53.316;-6.294;2023-07-20T08:38:20;20.63;;;10.45;;
41719;SDS011;27405;53.316;-6.294;2023-07-20T08:40:46;20.08;;;11.35;;
41719;SDS011;27405;53.316;-6.294;2023-07-20T08:43:12;18.92;;;10.27;;
41719;SDS011;27405;53.316;-6.294;2023-07-20T08:45:39;20.55;;;11.48;;
41719;SDS011;27405;53.316;-6.294;2023-07-20T08:48:06;21.63;;;10.43;;
41719;SDS011;27405;53.316;-6.294;2023-07-20T08:50:33;19.35;;;10.38;;
41719;SDS011;27405;53.316;-6.294;2023-07-20T08:53:00;16.80;;;10.07;;
41719;SDS011;27405;53.316;-6.294;2023-07-20T08:55:26;15.38;;;7.85;;
41719;SDS011;27405;53.316;-6.294;2023-07-20T08:57:56;16.80;;;8.77;;
41719;SDS011;27405;53.316;-6.294;2023-07-20T09:00:23;16.70;;;8.75;;
41719;SDS011;27405;53.316;-6.294;2023-07-20T09:02:51;15.05;;;8.15;;
41719;SDS011;27405;53.316;-6.294;2023-07-20T09:05:18;12.07;;;7.13;;
41719;SDS011;27405;53.316;-6.294;2023-07-20T09:07:44;12.45;;;7.45;;
41719;SDS011;27405;53.316;-6.294;2023-07-20T09:10:10;13.88;;;7.80;;
41719;SDS011;27405;53.316;-6.294;2023-07-20T09:12:37;16.40;;;8.73;;
41719;SDS011;27405;53.316;-6.294;2023-07-20T09:15:05;15.40;;;8.27;;
41719;SDS011;27405;53.316;-6.294;2023-07-20T09:17:31;15.13;;;7.82;;
41719;SDS011;27405;53.316;-6.294;2023-07-20T09:19:57;17.50;;;8.82;;
41719;SDS011;27405;53.316;-6.294;2023-07-20T09:22:30;11.65;;;7.13;;
41719;SDS011;27405;53.316;-6.294;2023-07-20T09:24:57;11.73;;;7.50;;
41719;SDS011;27405;53.316;-6.294;2023-07-20T09:27:45;12.55;;;6.28;;
41719;SDS011;27405;53.316;-6.294;2023-07-20T09:30:11;13.63;;;7.38;;
41719;SDS011;27405;53.316;-6.294;2023-07-20T09:32:42;11.20;;;6.60;;
41719;SDS011;27405;53.316;-6.294;2023-07-20T09:35:13;12.80;;;7.03;;
41719;SDS011;27405;53.316;-6.294;2023-07-20T09:37:47;10.85;;;7.15;;
41719;SDS011;27405;53.316;-6.294;2023-07-20T09:40:17;13.80;;;6.95;;
41719;SDS011;27405;53.316;-6.294;2023-07-20T09:42:43;12.00;;;6.38;;
41719;SDS011;27405;53.316;-6.294;2023-07-20T09:45:09;11.65;;;6.22;;
41719;SDS011;27405;53.316;-6.294;2023-07-20T09:47:35;10.82;;;6.53;;
41719;SDS011;27405;53.316;-6.294;2023-07-20T09:50:03;10.52;;;6.63;;
41719;SDS011;27405;53.316;-6.294;2023-07-20T09:52:29;11.57;;;6.70;;
41719;SDS011;27405;53.316;-6.294;2023-07-20T09:54:56;19.30;;;8.57;;
41719;SDS011;27405;53.316;-6.294;2023-07-20T09:57:23;15.30;;;8.50;;
41719;SDS011;27405;53.316;-6.294;2023-07-20T09:59:51;10.30;;;6.57;;
41719;SDS011;27405;53.316;-6.294;2023-07-20T10:02:20;14.55;;;8.10;;
41719;SDS011;27405;53.316;-6.294;2023-07-20T10:04:51;16.52;;;8.95;;
41719;SDS011;27405;53.316;-6.294;2023-07-20T10:07:19;17.52;;;8.75;;
41719;SDS011;27405;53.316;-6.294;2023-07-20T10:09:48;17.45;;;8.80;;
41719;SDS011;27405;53.316;-6.294;2023-07-20T10:12:15;17.35;;;8.50;;
41719;SDS011;27405;53.316;-6.294;2023-07-20T10:14:42;16.77;;;7.57;;
41719;SDS011;27405;53.316;-6.294;2023-07-20T10:17:16;15.55;;;8.93;;
41719;SDS011;27405;53.316;-6.294;2023-07-20T10:19:44;14.45;;;8.02;;
41719;SDS011;27405;53.316;-6.294;2023-07-20T10:22:16;18.73;;;8.02;;
41719;SDS011;27405;53.316;-6.294;2023-07-20T10:24:45;13.95;;;7.75;;
41719;SDS011;27405;53.316;-6.294;2023-07-20T10:27:12;15.60;;;7.30;;
41719;SDS011;27405;53.316;-6.294;2023-07-20T10:29:38;13.57;;;7.13;;
41719;SDS011;27405;53.316;-6.294;2023-07-20T10:32:05;13.10;;;6.60;;
41719;SDS011;27405;53.316;-6.294;2023-07-20T10:34:32;15.38;;;8.07;;
41719;SDS011;27405;53.316;-6.294;2023-07-20T10:36:58;14.68;;;7.72;;
41719;SDS011;27405;53.316;-6.294;2023-07-20T10:39:25;14.77;;;7.03;;
41719;SDS011;27405;53.316;-6.294;2023-07-20T10:42:00;12.60;;;6.95;;
41719;SDS011;27405;53.316;-6.294;2023-07-20T10:44:26;14.27;;;8.10;;
41719;SDS011;27405;53.316;-6.294;2023-07-20T10:46:52;14.45;;;7.53;;
41719;SDS011;27405;53.316;-6.294;2023-07-20T10:49:25;13.20;;;7.82;;
41719;SDS011;27405;53.316;-6.294;2023-07-20T10:51:56;14.85;;;7.45;;
41719;SDS011;27405;53.316;-6.294;2023-07-20T10:56:52;16.25;;;9.00;;
41719;SDS011;27405;53.316;-6.294;2023-07-20T10:59:41;16.87;;;9.60;;
41719;SDS011;27405;53.316;-6.294;2023-07-20T11:02:06;18.10;;;9.90;;
41719;SDS011;27405;53.316;-6.294;2023-07-20T11:04:40;20.60;;;11.20;;
41719;SDS011;27405;53.316;-6.294;2023-07-20T11:07:07;20.63;;;11.70;;
41719;SDS011;27405;53.316;-6.294;2023-07-20T11:09:36;21.45;;;10.95;;
41719;SDS011;27405;53.316;-6.294;2023-07-20T11:14:39;18.98;;;11.07;;
41719;SDS011;27405;53.316;-6.294;2023-07-20T11:17:17;20.50;;;11.40;;
41719;SDS011;27405;53.316;-6.294;2023-07-20T11:19:47;17.98;;;9.52;;
41719;SDS011;27405;53.316;-6.294;2023-07-20T11:22:15;17.02;;;9.98;;
41719;SDS011;27405;53.316;-6.294;2023-07-20T11:24:42;16.15;;;9.27;;
41719;SDS011;27405;53.316;-6.294;2023-07-20T11:27:08;14.65;;;8.90;;
41719;SDS011;27405;53.316;-6.294;2023-07-20T11:29:34;15.57;;;9.30;;
41719;SDS011;27405;53.316;-6.294;2023-07-20T11:32:02;15.80;;;8.52;;
41719;SDS011;27405;53.316;-6.294;2023-07-20T11:34:29;13.48;;;8.98;;
41719;SDS011;27405;53.316;-6.294;2023-07-20T11:36:56;16.60;;;9.10;;
41719;SDS011;27405;53.316;-6.294;2023-07-20T11:39:22;13.30;;;7.97;;
41719;SDS011;27405;53.316;-6.294;2023-07-20T11:41:51;19.63;;;9.57;;
41719;SDS011;27405;53.316;-6.294;2023-07-20T11:44:19;19.30;;;8.70;;
41719;SDS011;27405;53.316;-6.294;2023-07-20T11:47:03;12.52;;;7.88;;
41719;SDS011;27405;53.316;-6.294;2023-07-20T11:49:42;14.80;;;7.70;;
41719;SDS011;27405;53.316;-6.294;2023-07-20T11:52:13;16.88;;;8.05;;
41719;SDS011;27405;53.316;-6.294;2023-07-20T11:54:41;11.73;;;6.78;;
41719;SDS011;27405;53.316;-6.294;2023-07-20T11:57:07;15.43;;;7.82;;
41719;SDS011;27405;53.316;-6.294;2023-07-20T11:59:52;12.20;;;6.50;;
41719;SDS011;27405;53.316;-6.294;2023-07-20T12:02:20;10.15;;;6.45;;
41719;SDS011;27405;53.316;-6.294;2023-07-20T12:04:47;15.23;;;6.93;;
41719;SDS011;27405;53.316;-6.294;2023-07-20T12:07:13;13.38;;;7.07;;
41719;SDS011;27405;53.316;-6.294;2023-07-20T12:09:39;12.55;;;7.00;;
41719;SDS011;27405;53.316;-6.294;2023-07-20T12:12:10;12.75;;;7.20;;
41719;SDS011;27405;53.316;-6.294;2023-07-20T12:14:39;12.82;;;7.43;;
41719;SDS011;27405;53.316;-6.294;2023-07-20T12:17:07;16.02;;;7.53;;
41719;SDS011;27405;53.316;-6.294;2023-07-20T12:19:37;10.73;;;6.75;;
41719;SDS011;27405;53.316;-6.294;2023-07-20T12:22:04;12.00;;;7.20;;
41719;SDS011;27405;53.316;-6.294;2023-07-20T12:24:30;12.07;;;7.68;;
41719;SDS011;27405;53.316;-6.294;2023-07-20T12:26:56;12.70;;;7.47;;
41719;SDS011;27405;53.316;-6.294;2023-07-20T12:29:23;12.43;;;7.75;;
41719;SDS011;27405;53.316;-6.294;2023-07-20T12:31:49;13.48;;;8.18;;
41719;SDS011;27405;53.316;-6.294;2023-07-20T12:34:15;13.73;;;7.60;;
41719;SDS011;27405;53.316;-6.294;2023-07-20T12:36:40;15.23;;;7.13;;
41719;SDS011;27405;53.316;-6.294;2023-07-20T12:39:06;12.70;;;7.57;;
41719;SDS011;27405;53.316;-6.294;2023-07-20T12:41:32;12.48;;;7.30;;
41719;SDS011;27405;53.316;-6.294;2023-07-20T12:44:00;11.82;;;7.90;;
41719;SDS011;27405;53.316;-6.294;2023-07-20T12:46:25;13.53;;;8.00;;
41719;SDS011;27405;53.316;-6.294;2023-07-20T12:48:54;13.63;;;8.10;;
41719;SDS011;27405;53.316;-6.294;2023-07-20T12:51:20;10.50;;;7.10;;
41719;SDS011;27405;53.316;-6.294;2023-07-20T12:53:46;14.90;;;7.95;;
41719;SDS011;27405;53.316;-6.294;2023-07-20T12:56:12;13.10;;;6.97;;
41719;SDS011;27405;53.316;-6.294;2023-07-20T12:58:37;13.50;;;7.25;;
41719;SDS011;27405;53.316;-6.294;2023-07-20T13:01:03;11.98;;;7.45;;
41719;SDS011;27405;53.316;-6.294;2023-07-20T13:03:29;13.32;;;7.65;;
41719;SDS011;27405;53.316;-6.294;2023-07-20T13:05:55;13.98;;;6.53;;
41719;SDS011;27405;53.316;-6.294;2023-07-20T13:08:21;14.48;;;6.63;;
41719;SDS011;27405;53.316;-6.294;2023-07-20T13:10:50;10.15;;;6.13;;
41719;SDS011;27405;53.316;-6.294;2023-07-20T13:13:16;13.02;;;7.00;;
41719;SDS011;27405;53.316;-6.294;2023-07-20T13:15:45;12.63;;;7.05;;
41719;SDS011;27405;53.316;-6.294;2023-07-20T13:18:11;11.02;;;6.80;;
41719;SDS011;27405;53.316;-6.294;2023-07-20T13:20:37;13.20;;;7.45;;
41719;SDS011;27405;53.316;-6.294;2023-07-20T13:23:02;12.40;;;7.50;;
41719;SDS011;27405;53.316;-6.294;2023-07-20T13:25:29;13.32;;;7.90;;
41719;SDS011;27405;53.316;-6.294;2023-07-20T13:27:55;13.65;;;6.90;;
41719;SDS011;27405;53.316;-6.294;2023-07-20T13:30:21;11.45;;;7.15;;
41719;SDS011;27405;53.316;-6.294;2023-07-20T13:32:47;13.32;;;8.75;;
41719;SDS011;27405;53.316;-6.294;2023-07-20T13:35:12;14.73;;;8.90;;
41719;SDS011;27405;53.316;-6.294;2023-07-20T13:37:38;12.98;;;8.60;;
41719;SDS011;27405;53.316;-6.294;2023-07-20T13:40:04;16.67;;;9.43;;
41719;SDS011;27405;53.316;-6.294;2023-07-20T13:42:31;16.48;;;9.13;;
41719;SDS011;27405;53.316;-6.294;2023-07-20T13:44:57;16.10;;;8.73;;
41719;SDS011;27405;53.316;-6.294;2023-07-20T13:47:23;17.63;;;8.95;;
41719;SDS011;27405;53.316;-6.294;2023-07-20T13:49:48;16.10;;;9.18;;
41719;SDS011;27405;53.316;-6.294;2023-07-20T13:52:14;18.33;;;10.10;;
41719;SDS011;27405;53.316;-6.294;2023-07-20T13:54:40;15.23;;;10.05;;
41719;SDS011;27405;53.316;-6.294;2023-07-20T13:57:06;17.85;;;11.27;;
41719;SDS011;27405;53.316;-6.294;2023-07-20T13:59:32;19.88;;;11.30;;
41719;SDS011;27405;53.316;-6.294;2023-07-20T14:01:57;20.30;;;12.85;;
41719;SDS011;27405;53.316;-6.294;2023-07-20T14:04:23;19.27;;;12.40;;
41719;SDS011;27405;53.316;-6.294;2023-07-20T14:06:49;18.77;;;12.85;;
41719;SDS011;27405;53.316;-6.294;2023-07-20T14:09:15;20.58;;;11.65;;
41719;SDS011;27405;53.316;-6.294;2023-07-20T14:11:41;20.48;;;13.05;;
41719;SDS011;27405;53.316;-6.294;2023-07-20T14:14:06;23.33;;;12.20;;
41719;SDS011;27405;53.316;-6.294;2023-07-20T14:16:32;19.95;;;12.50;;
41719;SDS011;27405;53.316;-6.294;2023-07-20T14:18:57;18.42;;;12.18;;
41719;SDS011;27405;53.316;-6.294;2023-07-20T14:21:24;17.52;;;12.23;;
41719;SDS011;27405;53.316;-6.294;2023-07-20T14:23:50;19.15;;;12.20;;
41719;SDS011;27405;53.316;-6.294;2023-07-20T14:26:17;18.45;;;11.40;;
41719;SDS011;27405;53.316;-6.294;2023-07-20T14:28:43;18.00;;;11.70;;
41719;SDS011;27405;53.316;-6.294;2023-07-20T14:31:09;18.77;;;11.73;;
41719;SDS011;27405;53.316;-6.294;2023-07-20T14:33:35;19.67;;;11.80;;
41719;SDS011;27405;53.316;-6.294;2023-07-20T14:36:01;19.55;;;12.30;;
41719;SDS011;27405;53.316;-6.294;2023-07-20T14:38:27;21.13;;;11.95;;
41719;SDS011;27405;53.316;-6.294;2023-07-20T14:40:53;15.35;;;11.07;;